Time;durP1;ratioP1;P1;durP2;ratioP2;P2;SDS_P1;SDS_P2;PMS_P1;PMS_P2;Temp;Humidity;BMP_temperature;BMP_pressure;BME280_temperature;BME280_humidity;BME280_pressure;Samples;Min_cycle;Max_cycle;Signal;HPM_P1;HPM_P2
2021/12/19 00:00:50;;;;;;;14.35;8.35;;;;;;;;;;4922822;28;20130;-85
2021/12/19 00:11:18;;;;;;;14.23;7.72;;;;;;;;;;4928374;28;20074;-85
2021/12/19 00:13:46;;;;;;;11.48;7.38;;;;;;;;;;4886937;28;20054;-85
2021/12/19 00:16:13;;;;;;;12.18;7.53;;;;;;;;;;4898710;28;20556;-85
2021/12/19 00:18:43;;;;;;;15.97;8.43;;;;;;;;;;4900907;28;20414;-86
2021/12/19 00:21:12;;;;;;;12.70;7.63;;;;;;;;;;4918372;28;20051;-86
2021/12/19 00:23:39;;;;;;;18.30;8.77;;;;;;;;;;4899571;28;20792;-86
2021/12/19 00:26:06;;;;;;;16.10;7.97;;;;;;;;;;4899601;28;20039;-86
2021/12/19 00:28:33;;;;;;;11.87;7.27;;;;;;;;;;4902900;28;20062;-85
2021/12/19 00:30:59;;;;;;;10.68;7.13;;;;;;;;;;4904208;28;20126;-85
2021/12/19 00:33:33;;;;;;;11.50;6.60;;;;;;;;;;4919932;28;20053;-85
2021/12/19 00:35:59;;;;;;;13.15;7.72;;;;;;;;;;4904855;28;20118;-85
2021/12/19 00:38:25;;;;;;;11.93;7.22;;;;;;;;;;4915961;28;20734;-85
2021/12/19 00:40:53;;;;;;;9.55;6.45;;;;;;;;;;4919470;28;20071;-85
2021/12/19 00:43:43;;;;;;;11.32;6.93;;;;;;;;;;4927547;28;20502;-85
2021/12/19 00:46:12;;;;;;;13.90;7.15;;;;;;;;;;4913772;28;20044;-85
2021/12/19 00:48:38;;;;;;;;;;;;;;;;;;4919678;28;22055;-85
2021/12/19 00:51:05;;;;;;;11.38;7.00;;;;;;;;;;4916900;28;19922;-85
2021/12/19 00:53:33;;;;;;;14.98;7.30;;;;;;;;;;4916090;28;20107;-85
2021/12/19 00:56:01;;;;;;;14.52;8.27;;;;;;;;;;4917691;28;20158;-85
2021/12/19 00:58:29;;;;;;;12.32;8.05;;;;;;;;;;4914796;28;20055;-85
2021/12/19 01:00:56;;;;;;;13.68;8.48;;;;;;;;;;4901612;29;20043;-85
2021/12/19 01:03:24;;;;;;;14.77;8.75;;;;;;;;;;4900219;28;20525;-85
2021/12/19 01:05:50;;;;;;;16.10;7.82;;;;;;;;;;4916079;29;20051;-85
2021/12/19 01:08:18;;;;;;;15.13;6.93;;;;;;;;;;4929412;28;20063;-85
2021/12/19 01:10:48;;;;;;;9.27;5.75;;;;;;;;;;4919502;28;20043;-85
2021/12/19 01:13:15;;;;;;;8.13;4.47;;;;;;;;;;4900684;28;20042;-84
2021/12/19 01:15:41;;;;;;;8.00;3.83;;;;;;;;;;4901206;29;20047;-85
2021/12/19 01:18:08;;;;;;;6.97;4.53;;;;;;;;;;4901318;28;20058;-85
2021/12/19 01:20:51;;;;;;;7.40;4.28;;;;;;;;;;4917942;29;20051;-85
2021/12/19 01:23:26;;;;;;;7.10;4.60;;;;;;;;;;4900392;28;20914;-85
2021/12/19 01:26:02;;;;;;;8.30;5.10;;;;;;;;;;4911236;28;20047;-85
2021/12/19 01:28:29;;;;;;;9.38;5.78;;;;;;;;;;4917960;28;20050;-85
2021/12/19 01:30:55;;;;;;;10.02;5.63;;;;;;;;;;4924333;28;20514;-86
2021/12/19 01:33:26;;;;;;;11.35;6.60;;;;;;;;;;4915551;28;20047;-86
2021/12/19 01:36:01;;;;;;;15.85;9.10;;;;;;;;;;4937711;28;20047;-85
2021/12/19 01:38:31;;;;;;;12.40;7.70;;;;;;;;;;4914968;28;20143;-85
2021/12/19 01:40:58;;;;;;;10.07;7.07;;;;;;;;;;4905812;29;20391;-86
2021/12/19 01:43:27;;;;;;;10.98;6.40;;;;;;;;;;4915408;28;21425;-85
2021/12/19 01:45:54;;;;;;;9.27;5.80;;;;;;;;;;4915466;29;20047;-85
2021/12/19 01:48:21;;;;;;;9.23;5.57;;;;;;;;;;4914477;28;20578;-85
2021/12/19 01:50:48;;;;;;;5.05;3.78;;;;;;;;;;4913823;29;20369;-85
2021/12/19 01:53:15;;;;;;;5.43;3.03;;;;;;;;;;4898324;29;20157;-85
2021/12/19 01:55:42;;;;;;;7.30;3.42;;;;;;;;;;4897527;29;20044;-85
2021/12/19 01:58:09;;;;;;;5.00;3.08;;;;;;;;;;4895852;29;20056;-84
2021/12/19 02:00:39;;;;;;;6.22;3.17;;;;;;;;;;4917738;29;20044;-84
2021/12/19 02:03:05;;;;;;;7.40;2.83;;;;;;;;;;4916916;28;20055;-85
2021/12/19 02:05:47;;;;;;;4.18;2.55;;;;;;;;;;4899885;29;20212;-85
2021/12/19 02:08:14;;;;;;;3.30;2.08;;;;;;;;;;4892404;29;20044;-85
2021/12/19 02:10:40;;;;;;;2.90;2.10;;;;;;;;;;4905697;29;20680;-85
2021/12/19 02:13:07;;;;;;;2.58;1.67;;;;;;;;;;4896463;29;20579;-84
2021/12/19 02:15:33;;;;;;;4.05;1.77;;;;;;;;;;4889225;29;20048;-85
2021/12/19 02:18:14;;;;;;;2.53;1.73;;;;;;;;;;4934357;28;20586;-84
2021/12/19 02:20:59;;;;;;;4.53;1.80;;;;;;;;;;4928167;28;20402;-84
2021/12/19 02:23:28;;;;;;;2.75;1.50;;;;;;;;;;4936152;28;20104;-85
2021/12/19 02:25:56;;;;;;;2.33;1.35;;;;;;;;;;4923164;28;20461;-85
2021/12/19 02:28:22;;;;;;;;;;;;;;;;;;4936701;28;20424;-85
2021/12/19 02:30:50;;;;;;;1.75;0.98;;;;;;;;;;4923289;28;19926;-85
2021/12/19 02:33:20;;;;;;;1.33;1.02;;;;;;;;;;4907499;28;20043;-85
2021/12/19 02:35:56;;;;;;;1.83;1.00;;;;;;;;;;4939884;28;20690;-86
2021/12/19 02:49:48;;;;;;;3.30;1.30;;;;;;;;;;4913181;28;20135;-86
2021/12/19 02:52:16;;;;;;;1.92;1.25;;;;;;;;;;4937668;28;20402;-85
2021/12/19 02:54:43;;;;;;;;;;;;;;;;;;4940461;28;20043;-85
2021/12/19 02:57:10;;;;;;;3.17;1.20;;;;;;;;;;4915823;28;19945;-85
2021/12/19 02:59:37;;;;;;;3.10;1.23;;;;;;;;;;4935364;28;20048;-85
2021/12/19 03:02:06;;;;;;;2.85;1.10;;;;;;;;;;4921269;28;20474;-85
2021/12/19 03:04:33;;;;;;;1.77;1.00;;;;;;;;;;4920881;28;20047;-85
2021/12/19 03:06:59;;;;;;;2.58;1.30;;;;;;;;;;4939444;28;20107;-85
2021/12/19 03:12:27;;;;;;;2.03;1.38;;;;;;;;;;4917463;28;20118;-84
2021/12/19 03:20:28;;;;;;;1.55;1.23;;;;;;;;;;4920293;28;20066;-85
2021/12/19 03:23:02;;;;;;;1.45;0.80;;;;;;;;;;4939116;28;20094;-85
2021/12/19 03:25:30;;;;;;;1.70;0.95;;;;;;;;;;4923116;28;20528;-85
2021/12/19 03:27:57;;;;;;;2.65;0.80;;;;;;;;;;4936911;28;20051;-86
2021/12/19 03:30:24;;;;;;;2.72;0.80;;;;;;;;;;4916481;28;20055;-86
2021/12/19 03:32:50;;;;;;;1.52;0.90;;;;;;;;;;4912383;28;20135;-86
2021/12/19 03:35:17;;;;;;;0.95;0.80;;;;;;;;;;4910361;29;20056;-85
2021/12/19 03:37:44;;;;;;;1.73;0.93;;;;;;;;;;4899196;29;20051;-85
2021/12/19 03:40:12;;;;;;;2.95;1.15;;;;;;;;;;4889788;29;20103;-85
2021/12/19 03:42:45;;;;;;;1.50;1.10;;;;;;;;;;4902361;29;20043;-85
2021/12/19 03:45:14;;;;;;;2.17;1.17;;;;;;;;;;4898309;29;20051;-85
2021/12/19 03:47:50;;;;;;;2.13;1.10;;;;;;;;;;4916900;28;20052;-85
2021/12/19 03:50:20;;;;;;;2.53;1.25;;;;;;;;;;4868480;29;20079;-85
2021/12/19 03:52:47;;;;;;;3.17;1.00;;;;;;;;;;4887096;29;20040;-86
2021/12/19 03:55:18;;;;;;;2.50;0.95;;;;;;;;;;4913641;29;20052;-86
2021/12/19 03:57:45;;;;;;;3.85;1.17;;;;;;;;;;4893557;29;20056;-85
2021/12/19 04:00:13;;;;;;;2.58;1.10;;;;;;;;;;4895220;28;20490;-85
2021/12/19 04:02:39;;;;;;;3.45;1.02;;;;;;;;;;4901240;29;20040;-85
2021/12/19 04:05:05;;;;;;;2.03;1.20;;;;;;;;;;4886087;29;20439;-85
2021/12/19 04:07:32;;;;;;;1.80;1.10;;;;;;;;;;4916443;29;20197;-86
2021/12/19 04:09:59;;;;;;;2.00;1.00;;;;;;;;;;4903023;29;20058;-85
2021/12/19 04:12:29;;;;;;;2.13;0.90;;;;;;;;;;4901881;29;20062;-85
2021/12/19 04:14:56;;;;;;;2.60;1.02;;;;;;;;;;4916399;29;20082;-85
2021/12/19 04:17:23;;;;;;;2.47;1.00;;;;;;;;;;4901032;29;20051;-85
2021/12/19 04:19:50;;;;;;;1.48;0.85;;;;;;;;;;4917640;29;20486;-85
2021/12/19 04:22:17;;;;;;;3.30;1.00;;;;;;;;;;4912034;29;20052;-85
2021/12/19 04:24:44;;;;;;;1.52;0.80;;;;;;;;;;4894239;29;20043;-85
2021/12/19 04:27:20;;;;;;;4.13;1.00;;;;;;;;;;4912759;29;20048;-85
2021/12/19 04:29:49;;;;;;;3.75;1.20;;;;;;;;;;4916701;29;20036;-85
2021/12/19 04:32:18;;;;;;;3.30;1.20;;;;;;;;;;4894117;29;20043;-85
2021/12/19 04:34:45;;;;;;;2.10;1.10;;;;;;;;;;4913938;28;20062;-85
2021/12/19 04:37:59;;;;;;;1.27;1.15;;;;;;;;;;4898334;28;20046;-85
2021/12/19 04:40:30;;;;;;;5.18;1.20;;;;;;;;;;4929379;28;20070;-85
2021/12/19 05:15:51;;;;;;;8.13;3.40;;;;;;;;;;4934093;28;20525;-85
2021/12/19 05:18:21;;;;;;;8.93;4.18;;;;;;;;;;4928018;28;20047;-85
2021/12/19 05:21:34;;;;;;;8.00;3.55;;;;;;;;;;4923252;28;20055;-86
2021/12/19 05:26:26;;;;;;;11.25;4.43;;;;;;;;;;4932541;28;21395;-85
2021/12/19 05:28:52;;;;;;;10.27;4.40;;;;;;;;;;4933335;28;20059;-85
2021/12/19 05:31:22;;;;;;;13.73;4.30;;;;;;;;;;4899720;28;20047;-85
2021/12/19 05:33:49;;;;;;;9.95;4.50;;;;;;;;;;4894822;29;20146;-85
2021/12/19 05:47:23;;;;;;;14.63;4.88;;;;;;;;;;4867950;29;20136;-85
2021/12/19 05:49:51;;;;;;;17.70;5.80;;;;;;;;;;4883573;29;20729;-84
2021/12/19 05:52:18;;;;;;;15.27;5.90;;;;;;;;;;4862697;29;20052;-85
2021/12/19 05:54:45;;;;;;;16.25;5.63;;;;;;;;;;4876024;29;20056;-85
2021/12/19 05:57:11;;;;;;;18.02;6.88;;;;;;;;;;4855268;29;20144;-85
2021/12/19 05:59:38;;;;;;;15.90;5.97;;;;;;;;;;4850240;29;20040;-85
2021/12/19 06:02:05;;;;;;;12.98;5.72;;;;;;;;;;4841472;29;20075;-85
2021/12/19 06:04:35;;;;;;;14.25;5.80;;;;;;;;;;4886776;29;20040;-85
2021/12/19 06:07:02;;;;;;;18.90;6.43;;;;;;;;;;4851539;29;20068;-85
2021/12/19 06:09:29;;;;;;;21.95;6.78;;;;;;;;;;4863950;29;20054;-85
2021/12/19 06:11:56;;;;;;;17.52;7.32;;;;;;;;;;4903194;29;20043;-85
2021/12/19 06:14:23;;;;;;;19.65;8.00;;;;;;;;;;4895965;29;20530;-84
2021/12/19 06:16:50;;;;;;;18.63;7.97;;;;;;;;;;4915517;29;20044;-84
2021/12/19 06:19:17;;;;;;;20.63;7.95;;;;;;;;;;4895128;29;20048;-85
2021/12/19 06:21:46;;;;;;;21.83;8.32;;;;;;;;;;4896577;29;20039;-85
2021/12/19 06:24:13;;;;;;;20.58;7.30;;;;;;;;;;4905592;29;20044;-84
2021/12/19 06:26:40;;;;;;;20.02;7.32;;;;;;;;;;4883072;29;20047;-85
2021/12/19 06:29:08;;;;;;;22.02;7.68;;;;;;;;;;4879032;29;20130;-85
2021/12/19 06:31:35;;;;;;;25.23;9.18;;;;;;;;;;4900449;29;20063;-85
2021/12/19 06:34:02;;;;;;;18.45;8.77;;;;;;;;;;4900431;29;20067;-85
2021/12/19 06:36:29;;;;;;;22.00;9.07;;;;;;;;;;4896865;29;20371;-85
2021/12/19 06:38:56;;;;;;;24.98;9.15;;;;;;;;;;4920358;29;20134;-85
2021/12/19 06:41:23;;;;;;;23.58;8.93;;;;;;;;;;4908262;29;20179;-85
2021/12/19 06:43:50;;;;;;;22.63;8.18;;;;;;;;;;4914421;28;20052;-86
2021/12/19 06:46:17;;;;;;;21.65;8.63;;;;;;;;;;4915381;28;20048;-85
2021/12/19 06:48:45;;;;;;;21.88;8.63;;;;;;;;;;4914066;28;20055;-86
2021/12/19 06:51:22;;;;;;;21.80;8.50;;;;;;;;;;4914113;28;20074;-85
2021/12/19 06:53:49;;;;;;;20.58;8.60;;;;;;;;;;4914237;29;20079;-86
2021/12/19 06:56:16;;;;;;;19.17;7.32;;;;;;;;;;4895539;29;20047;-85
2021/12/19 06:58:43;;;;;;;19.55;7.60;;;;;;;;;;4899768;29;20435;-85
2021/12/19 07:01:10;;;;;;;20.13;8.20;;;;;;;;;;4882383;29;20051;-85
2021/12/19 07:03:37;;;;;;;21.15;8.20;;;;;;;;;;4899928;29;20466;-85
2021/12/19 07:06:03;;;;;;;19.60;9.25;;;;;;;;;;4918262;29;20051;-85
2021/12/19 07:08:30;;;;;;;20.70;7.55;;;;;;;;;;4877393;29;20044;-84
2021/12/19 07:10:57;;;;;;;16.95;7.90;;;;;;;;;;4896647;29;20080;-85
2021/12/19 07:13:24;;;;;;;19.65;7.95;;;;;;;;;;4863827;29;20055;-85
2021/12/19 07:15:50;;;;;;;21.83;7.57;;;;;;;;;;4916976;28;20257;-84
2021/12/19 07:18:19;;;;;;;16.90;7.85;;;;;;;;;;4879136;29;20044;-84
2021/12/19 07:20:47;;;;;;;25.92;7.30;;;;;;;;;;4903612;29;20131;-84
2021/12/19 07:23:16;;;;;;;18.60;7.20;;;;;;;;;;4891909;29;20035;-84
2021/12/19 07:25:43;;;;;;;14.32;6.03;;;;;;;;;;4896518;29;20146;-84
2021/12/19 07:28:11;;;;;;;17.60;6.93;;;;;;;;;;4894058;28;20790;-84
2021/12/19 07:30:38;;;;;;;14.88;6.28;;;;;;;;;;4897513;29;20047;-84
2021/12/19 07:33:07;;;;;;;19.30;5.55;;;;;;;;;;4897630;29;20050;-85
2021/12/19 07:35:37;;;;;;;21.27;6.13;;;;;;;;;;4918303;28;20059;-85
2021/12/19 07:38:09;;;;;;;13.55;5.50;;;;;;;;;;4921033;28;20059;-84
2021/12/19 07:40:38;;;;;;;14.60;5.30;;;;;;;;;;4924338;28;20390;-84
2021/12/19 07:43:08;;;;;;;17.52;5.70;;;;;;;;;;4903184;28;20067;-84
2021/12/19 07:45:34;;;;;;;17.55;5.78;;;;;;;;;;4904282;28;20370;-85
2021/12/19 07:48:01;;;;;;;14.88;4.80;;;;;;;;;;4891474;28;20498;-85
2021/12/19 07:50:27;;;;;;;18.70;5.00;;;;;;;;;;4903944;28;20142;-84
2021/12/19 07:52:54;;;;;;;12.70;4.63;;;;;;;;;;4891529;28;20055;-85
2021/12/19 07:55:21;;;;;;;12.10;4.78;;;;;;;;;;4876743;28;20396;-85
2021/12/19 07:57:48;;;;;;;15.77;5.40;;;;;;;;;;4918923;28;20040;-85
2021/12/19 08:00:14;;;;;;;21.42;5.40;;;;;;;;;;4912862;28;20055;-85
2021/12/19 08:02:40;;;;;;;15.93;4.90;;;;;;;;;;4904973;29;20039;-85
2021/12/19 08:05:09;;;;;;;19.15;5.30;;;;;;;;;;4903275;28;20046;-85
2021/12/19 08:07:35;;;;;;;;;;;;;;;;;;4906736;28;20506;-84
2021/12/19 08:12:35;;;;;;;20.23;4.68;;;;;;;;;;4937385;28;20054;-84
2021/12/19 08:15:07;;;;;;;14.13;4.55;;;;;;;;;;4900828;28;20145;-85
2021/12/19 08:17:33;;;;;;;13.15;4.32;;;;;;;;;;4918281;28;20110;-85
2021/12/19 08:19:59;;;;;;;20.83;5.03;;;;;;;;;;4906553;28;20145;-86
2021/12/19 08:22:28;;;;;;;15.10;5.00;;;;;;;;;;4914697;28;21731;-85
2021/12/19 08:24:57;;;;;;;18.55;5.25;;;;;;;;;;4919989;28;20114;-86
2021/12/19 08:27:23;;;;;;;14.13;4.63;;;;;;;;;;4903380;28;20047;-85
2021/12/19 08:29:51;;;;;;;13.35;4.70;;;;;;;;;;4902806;28;20444;-85
2021/12/19 08:32:26;;;;;;;16.17;4.80;;;;;;;;;;4912455;28;20101;-85
2021/12/19 08:34:52;;;;;;;16.25;4.68;;;;;;;;;;4936321;28;20706;-85
2021/12/19 08:37:19;;;;;;;12.13;3.95;;;;;;;;;;4885438;28;20502;-85
2021/12/19 08:39:45;;;;;;;14.73;4.35;;;;;;;;;;4921724;28;20047;-85
2021/12/19 08:42:11;;;;;;;15.75;4.00;;;;;;;;;;4921058;28;20047;-85
2021/12/19 08:44:38;;;;;;;11.90;4.25;;;;;;;;;;4904240;28;20123;-84
2021/12/19 08:47:06;;;;;;;12.93;4.03;;;;;;;;;;4906885;28;20039;-85
2021/12/19 08:49:32;;;;;;;12.55;3.90;;;;;;;;;;4905594;28;20035;-85
2021/12/19 08:51:59;;;;;;;16.38;4.22;;;;;;;;;;4902429;28;20110;-85
2021/12/19 08:54:25;;;;;;;14.00;3.88;;;;;;;;;;4917099;28;20043;-85
2021/12/19 08:56:51;;;;;;;17.52;4.43;;;;;;;;;;4915918;28;20067;-85
2021/12/19 08:59:17;;;;;;;17.58;4.47;;;;;;;;;;4895092;28;20043;-85
2021/12/19 09:01:47;;;;;;;18.70;4.15;;;;;;;;;;4901973;28;20078;-85
2021/12/19 09:04:13;;;;;;;16.80;4.35;;;;;;;;;;4912796;28;20055;-85
2021/12/19 09:06:40;;;;;;;16.63;4.65;;;;;;;;;;4904333;28;20439;-85
2021/12/19 09:09:07;;;;;;;14.57;4.05;;;;;;;;;;4900849;28;20078;-85
2021/12/19 09:11:34;;;;;;;14.38;4.57;;;;;;;;;;4922333;28;20062;-85
2021/12/19 09:14:00;;;;;;;15.27;3.92;;;;;;;;;;4922836;28;20466;-84
2021/12/19 09:16:27;;;;;;;13.45;4.65;;;;;;;;;;4884383;28;21829;-85
2021/12/19 09:18:55;;;;;;;17.40;4.65;;;;;;;;;;4907081;28;23518;-85
2021/12/19 09:21:21;;;;;;;16.55;4.43;;;;;;;;;;4917920;28;20126;-85
2021/12/19 09:23:48;;;;;;;15.65;4.22;;;;;;;;;;4932622;28;20059;-85
2021/12/19 09:26:15;;;;;;;14.30;4.47;;;;;;;;;;4900193;28;20110;-86
2021/12/19 09:28:50;;;;;;;15.70;4.97;;;;;;;;;;4917216;28;20051;-86
2021/12/19 09:31:18;;;;;;;14.60;4.20;;;;;;;;;;4895649;28;20097;-85
2021/12/19 09:33:44;;;;;;;18.75;4.25;;;;;;;;;;4886959;28;20079;-85
2021/12/19 09:36:10;;;;;;;14.95;4.28;;;;;;;;;;4897120;28;20059;-85
2021/12/19 09:38:38;;;;;;;16.00;4.28;;;;;;;;;;4919991;29;20035;-86
2021/12/19 09:41:13;;;;;;;20.38;4.20;;;;;;;;;;4923247;28;20061;-85
2021/12/19 09:43:45;;;;;;;13.98;4.20;;;;;;;;;;4918535;28;20048;-85
2021/12/19 09:46:17;;;;;;;20.50;4.28;;;;;;;;;;4903181;28;20042;-85
2021/12/19 09:48:44;;;;;;;21.27;5.07;;;;;;;;;;4943579;28;20453;-85
2021/12/19 09:51:10;;;;;;;14.15;3.90;;;;;;;;;;4905343;28;20049;-85
2021/12/19 09:53:37;;;;;;;13.35;3.55;;;;;;;;;;4909865;28;20051;-86
2021/12/19 09:56:04;;;;;;;14.20;3.92;;;;;;;;;;4894152;29;20046;-85
2021/12/19 09:58:32;;;;;;;19.80;4.13;;;;;;;;;;4923985;28;20120;-86
2021/12/19 10:00:58;;;;;;;19.60;4.70;;;;;;;;;;4897833;28;20093;-86
2021/12/19 10:03:24;;;;;;;11.45;4.03;;;;;;;;;;4904083;28;24138;-86
2021/12/19 10:05:51;;;;;;;12.43;3.58;;;;;;;;;;4899220;29;20123;-85
2021/12/19 10:08:25;;;;;;;14.27;3.95;;;;;;;;;;4910793;28;20474;-86
2021/12/19 10:11:00;;;;;;;11.88;3.30;;;;;;;;;;4943271;28;20058;-86
2021/12/19 10:13:34;;;;;;;11.50;3.55;;;;;;;;;;4911691;28;20113;-85
2021/12/19 10:16:00;;;;;;;18.70;4.13;;;;;;;;;;4924301;28;20402;-86
2021/12/19 10:18:27;;;;;;;17.65;3.65;;;;;;;;;;4903659;28;20125;-85
2021/12/19 10:21:14;;;;;;;15.13;3.33;;;;;;;;;;4887236;29;20479;-86
2021/12/19 10:23:40;;;;;;;11.70;3.33;;;;;;;;;;4916034;29;20055;-85
2021/12/19 10:26:10;;;;;;;13.32;3.30;;;;;;;;;;4906049;28;20061;-85
2021/12/19 10:28:53;;;;;;;12.45;3.10;;;;;;;;;;4910815;28;20402;-85
2021/12/19 10:31:21;;;;;;;17.02;3.92;;;;;;;;;;4908008;28;20059;-85
2021/12/19 10:33:48;;;;;;;14.63;3.70;;;;;;;;;;4908589;28;20048;-85
2021/12/19 10:36:14;;;;;;;15.18;3.67;;;;;;;;;;4906929;28;20063;-85
2021/12/19 10:38:42;;;;;;;17.90;3.60;;;;;;;;;;4925710;28;20491;-85
2021/12/19 10:41:17;;;;;;;13.70;3.30;;;;;;;;;;4903254;28;20045;-85
2021/12/19 10:44:06;;;;;;;10.75;3.30;;;;;;;;;;4908008;28;20043;-85
2021/12/19 10:46:38;;;;;;;12.18;3.28;;;;;;;;;;4923121;28;20124;-86
2021/12/19 10:49:21;;;;;;;12.25;3.45;;;;;;;;;;4913831;28;20567;-85
2021/12/19 10:51:49;;;;;;;15.45;3.25;;;;;;;;;;4900528;28;20055;-85
2021/12/19 10:54:24;;;;;;;16.33;3.58;;;;;;;;;;4920751;28;20102;-85
2021/12/19 10:56:51;;;;;;;17.15;3.47;;;;;;;;;;4929166;29;20050;-85
2021/12/19 10:59:18;;;;;;;16.73;3.83;;;;;;;;;;4905984;28;20517;-85
2021/12/19 11:01:45;;;;;;;17.00;3.00;;;;;;;;;;4921331;29;20138;-85
2021/12/19 11:04:13;;;;;;;16.17;3.55;;;;;;;;;;4918840;28;20186;-85
2021/12/19 11:06:44;;;;;;;15.20;4.07;;;;;;;;;;4918587;28;20043;-85
2021/12/19 11:09:16;;;;;;;15.27;3.13;;;;;;;;;;4880534;28;20402;-85
2021/12/19 11:12:01;;;;;;;11.20;2.72;;;;;;;;;;4913723;28;20048;-85
2021/12/19 11:14:28;;;;;;;15.07;2.78;;;;;;;;;;4914367;28;20169;-85
2021/12/19 11:16:59;;;;;;;11.60;3.00;;;;;;;;;;4910847;28;20052;-85
2021/12/19 11:19:26;;;;;;;9.60;2.72;;;;;;;;;;4890198;28;22233;-85
2021/12/19 11:21:52;;;;;;;13.85;2.83;;;;;;;;;;4924812;29;20070;-85
2021/12/19 11:24:20;;;;;;;11.20;2.50;;;;;;;;;;4906344;28;20131;-85
2021/12/19 11:26:48;;;;;;;13.70;2.80;;;;;;;;;;4921933;28;20054;-85
2021/12/19 11:29:15;;;;;;;11.27;2.78;;;;;;;;;;4898784;28;20402;-86
2021/12/19 11:31:45;;;;;;;10.38;2.80;;;;;;;;;;4904905;28;20129;-85
2021/12/19 11:34:12;;;;;;;9.25;2.53;;;;;;;;;;4902546;28;20730;-86
2021/12/19 11:36:41;;;;;;;12.25;2.90;;;;;;;;;;4906848;28;20181;-85
2021/12/19 11:39:07;;;;;;;14.52;3.08;;;;;;;;;;4902974;28;20047;-85
2021/12/19 11:41:35;;;;;;;14.13;2.65;;;;;;;;;;4907592;28;20044;-85
2021/12/19 11:44:07;;;;;;;16.73;2.90;;;;;;;;;;4905993;28;20197;-84
2021/12/19 11:46:51;;;;;;;15.23;3.63;;;;;;;;;;4921829;28;20051;-85
2021/12/19 11:49:22;;;;;;;14.15;2.67;;;;;;;;;;4912167;28;20482;-85
2021/12/19 11:51:50;;;;;;;13.13;2.75;;;;;;;;;;4914189;28;20185;-84
2021/12/19 11:54:20;;;;;;;12.93;2.72;;;;;;;;;;4901378;28;20067;-85
2021/12/19 11:57:06;;;;;;;15.15;3.10;;;;;;;;;;4901873;28;22649;-85
2021/12/19 11:59:33;;;;;;;11.65;2.50;;;;;;;;;;4888709;28;20039;-85
2021/12/19 12:02:19;;;;;;;16.67;3.25;;;;;;;;;;4902093;28;20121;-85
2021/12/19 12:04:54;;;;;;;17.00;3.50;;;;;;;;;;4914451;28;20117;-84
2021/12/19 12:07:20;;;;;;;15.88;3.30;;;;;;;;;;4892444;28;20376;-85
2021/12/19 12:09:55;;;;;;;16.13;3.17;;;;;;;;;;4897885;28;20059;-85
2021/12/19 12:12:32;;;;;;;14.73;3.10;;;;;;;;;;4899752;28;20403;-86
2021/12/19 12:15:03;;;;;;;16.73;3.10;;;;;;;;;;4913187;28;20050;-86
2021/12/19 12:17:39;;;;;;;11.98;3.05;;;;;;;;;;4912610;28;20146;-86
2021/12/19 12:20:16;;;;;;;20.02;3.60;;;;;;;;;;4917863;28;20050;-85
2021/12/19 12:22:55;;;;;;;15.20;3.45;;;;;;;;;;4932648;28;20054;-85
2021/12/19 12:25:43;;;;;;;12.85;3.38;;;;;;;;;;4913996;28;20051;-85
2021/12/19 12:28:12;;;;;;;16.70;3.70;;;;;;;;;;4914412;28;20418;-85
2021/12/19 12:30:45;;;;;;;17.83;3.75;;;;;;;;;;4917086;28;20188;-84
2021/12/19 12:33:14;;;;;;;18.75;3.55;;;;;;;;;;4929940;28;20042;-85
2021/12/19 12:35:43;;;;;;;17.80;3.97;;;;;;;;;;4919909;28;20051;-85
2021/12/19 12:38:10;;;;;;;15.27;3.50;;;;;;;;;;4897070;28;20052;-85
2021/12/19 12:41:04;;;;;;;12.80;3.53;;;;;;;;;;4918387;28;20054;-85
2021/12/19 12:43:33;;;;;;;16.50;3.50;;;;;;;;;;4932326;28;20051;-84
2021/12/19 12:46:18;;;;;;;18.00;3.42;;;;;;;;;;4891950;28;20035;-84
2021/12/19 12:48:52;;;;;;;14.75;3.67;;;;;;;;;;4919866;28;20046;-84
2021/12/19 12:51:30;;;;;;;20.10;3.55;;;;;;;;;;4913872;28;20043;-85
2021/12/19 12:54:13;;;;;;;13.38;3.65;;;;;;;;;;4929818;28;20075;-85
2021/12/19 12:56:44;;;;;;;13.05;2.92;;;;;;;;;;4917490;28;20053;-85
2021/12/19 12:59:10;;;;;;;14.75;3.42;;;;;;;;;;4893795;28;20078;-85
2021/12/19 13:01:40;;;;;;;17.73;3.65;;;;;;;;;;4905912;28;20414;-85
2021/12/19 13:04:06;;;;;;;22.10;3.97;;;;;;;;;;4914130;28;20479;-85
2021/12/19 13:06:55;;;;;;;22.17;3.47;;;;;;;;;;4935443;28;20047;-85
2021/12/19 13:09:32;;;;;;;20.58;3.53;;;;;;;;;;4934813;28;20109;-86
2021/12/19 13:12:18;;;;;;;20.67;3.83;;;;;;;;;;4901957;28;20047;-84
2021/12/19 13:14:52;;;;;;;21.92;3.70;;;;;;;;;;4935552;28;20048;-86
2021/12/19 13:17:20;;;;;;;24.15;3.80;;;;;;;;;;4894413;28;20135;-84
2021/12/19 13:19:48;;;;;;;18.63;4.25;;;;;;;;;;4914038;28;20044;-84
2021/12/19 13:22:35;;;;;;;21.00;3.90;;;;;;;;;;4904846;28;20406;-84
2021/12/19 13:25:07;;;;;;;20.10;4.00;;;;;;;;;;4905635;28;20481;-84
2021/12/19 13:27:48;;;;;;;18.80;3.87;;;;;;;;;;4896702;29;20059;-86
2021/12/19 13:30:18;;;;;;;13.25;3.30;;;;;;;;;;4882480;29;20323;-84
2021/12/19 13:33:10;;;;;;;20.60;3.78;;;;;;;;;;4887417;29;20159;-84
2021/12/19 13:35:37;;;;;;;20.35;4.22;;;;;;;;;;4869168;29;20054;-84
2021/12/19 13:38:24;;;;;;;18.17;3.78;;;;;;;;;;4883300;29;20486;-84
2021/12/19 13:41:11;;;;;;;22.70;3.63;;;;;;;;;;4883973;29;20054;-85
2021/12/19 13:43:46;;;;;;;20.27;3.40;;;;;;;;;;4896116;29;20056;-87
2021/12/19 13:46:16;;;;;;;21.65;4.20;;;;;;;;;;4877914;29;20036;-87
2021/12/19 13:48:55;;;;;;;25.88;4.30;;;;;;;;;;4893849;29;20199;-85
2021/12/19 13:51:40;;;;;;;12.60;3.27;;;;;;;;;;4885277;29;20199;-85
2021/12/19 13:54:11;;;;;;;16.33;3.42;;;;;;;;;;4871340;29;20059;-83
2021/12/19 13:56:37;;;;;;;16.10;3.47;;;;;;;;;;4881577;29;20064;-84
2021/12/19 13:59:07;;;;;;;14.48;3.33;;;;;;;;;;4925105;28;20047;-84
2021/12/19 14:01:59;;;;;;;16.10;3.25;;;;;;;;;;4914589;28;20098;-85
2021/12/19 14:04:30;;;;;;;15.63;2.80;;;;;;;;;;4927820;28;20050;-86
2021/12/19 14:07:10;;;;;;;12.60;3.38;;;;;;;;;;4861776;29;20054;-85
2021/12/19 14:09:39;;;;;;;15.50;3.15;;;;;;;;;;4905010;28;20050;-85
2021/12/19 14:12:25;;;;;;;14.57;3.67;;;;;;;;;;4932864;28;20058;-85
2021/12/19 14:14:51;;;;;;;16.45;3.30;;;;;;;;;;4908583;28;20166;-85
2021/12/19 14:17:20;;;;;;;15.02;2.70;;;;;;;;;;4909999;28;20035;-86
2021/12/19 14:19:50;;;;;;;17.05;3.17;;;;;;;;;;4913710;28;20047;-85
2021/12/19 14:22:25;;;;;;;12.73;2.90;;;;;;;;;;4913312;28;20846;-85
2021/12/19 14:24:53;;;;;;;12.90;3.15;;;;;;;;;;4920704;28;20047;-85
2021/12/19 14:27:21;;;;;;;18.02;3.50;;;;;;;;;;4885602;28;20083;-85
2021/12/19 14:30:00;;;;;;;18.38;3.60;;;;;;;;;;4916259;28;20043;-85
2021/12/19 14:32:27;;;;;;;18.60;3.17;;;;;;;;;;4910577;28;21385;-85
2021/12/19 14:35:05;;;;;;;16.75;3.55;;;;;;;;;;4942122;28;20414;-85
2021/12/19 14:37:42;;;;;;;17.02;3.20;;;;;;;;;;4920652;28;20091;-85
2021/12/19 14:40:28;;;;;;;14.93;3.42;;;;;;;;;;4899849;28;20487;-84
2021/12/19 14:43:16;;;;;;;17.75;2.97;;;;;;;;;;4928224;28;20083;-84
2021/12/19 14:45:43;;;;;;;22.63;3.70;;;;;;;;;;4933635;28;20052;-84
2021/12/19 14:48:35;;;;;;;20.40;4.00;;;;;;;;;;4909204;28;20082;-85
2021/12/19 14:51:14;;;;;;;12.63;3.40;;;;;;;;;;4917010;28;20073;-84
2021/12/19 14:53:45;;;;;;;17.75;3.53;;;;;;;;;;4909857;28;20469;-85
2021/12/19 14:56:12;;;;;;;16.52;3.17;;;;;;;;;;4910902;28;20058;-85
2021/12/19 14:58:41;;;;;;;14.00;3.10;;;;;;;;;;4925589;28;20051;-84
2021/12/19 15:01:14;;;;;;;13.85;3.10;;;;;;;;;;4923373;28;20043;-84
2021/12/19 15:03:41;;;;;;;19.33;5.65;;;;;;;;;;4917480;28;20114;-84
2021/12/19 15:06:17;;;;;;;10.93;2.60;;;;;;;;;;4911466;28;20118;-83
2021/12/19 15:08:53;;;;;;;14.85;4.75;;;;;;;;;;4929679;28;20053;-83
2021/12/19 15:11:20;;;;;;;15.25;3.20;;;;;;;;;;4895639;28;20164;-84
2021/12/19 15:13:47;;;;;;;14.02;2.63;;;;;;;;;;4915708;28;20066;-83
2021/12/19 15:16:14;;;;;;;8.82;2.30;;;;;;;;;;4915920;28;20813;-83
2021/12/19 15:18:44;;;;;;;11.02;2.58;;;;;;;;;;4919525;28;20055;-83
2021/12/19 15:21:20;;;;;;;19.08;9.43;;;;;;;;;;4914608;28;20760;-84
2021/12/19 15:23:47;;;;;;;12.43;5.53;;;;;;;;;;4912803;28;20044;-85
2021/12/19 15:26:15;;;;;;;11.07;3.58;;;;;;;;;;4899290;28;20051;-84
2021/12/19 15:28:46;;;;;;;14.60;2.28;;;;;;;;;;4916093;28;20476;-82
2021/12/19 15:31:14;;;;;;;20.17;12.05;;;;;;;;;;4930811;28;20055;-83
2021/12/19 15:33:41;;;;;;;12.18;1.92;;;;;;;;;;4899863;29;20149;-83
2021/12/19 15:36:08;;;;;;;6.28;2.00;;;;;;;;;;4903424;28;20622;-83
2021/12/19 15:38:35;;;;;;;5.25;1.80;;;;;;;;;;4906967;29;20066;-83
2021/12/19 15:41:05;;;;;;;8.95;2.58;;;;;;;;;;4917937;28;20572;-83
2021/12/19 15:43:33;;;;;;;10.68;1.60;;;;;;;;;;4895217;28;20047;-85
2021/12/19 15:46:00;;;;;;;9.25;1.67;;;;;;;;;;4937494;28;20043;-85
2021/12/19 15:48:27;;;;;;;5.50;1.70;;;;;;;;;;4899113;28;20742;-84
2021/12/19 15:50:54;;;;;;;5.45;1.20;;;;;;;;;;4914474;29;20437;-83
2021/12/19 15:53:25;;;;;;;7.82;2.55;;;;;;;;;;4910265;28;20074;-84
2021/12/19 15:55:52;;;;;;;9.13;1.90;;;;;;;;;;4903139;28;20046;-83
2021/12/19 15:58:20;;;;;;;7.95;2.38;;;;;;;;;;4916717;28;20047;-83
2021/12/19 16:00:48;;;;;;;5.75;1.98;;;;;;;;;;4928081;28;20070;-84
2021/12/19 16:03:15;;;;;;;7.75;1.70;;;;;;;;;;4897792;28;20126;-85
2021/12/19 16:05:47;;;;;;;7.47;2.40;;;;;;;;;;4927739;28;20119;-84
2021/12/19 16:08:14;;;;;;;9.15;2.55;;;;;;;;;;4911543;28;20077;-83